createdAt,value
2019-04-22T00:03:49.733Z,64.20
2019-04-22T00:09:15.969Z,64.09
2019-04-22T00:14:14.997Z,64.42
2019-04-22T00:19:38.868Z,65.36
2019-04-22T00:24:38.792Z,65.47
2019-04-22T00:30:01.779Z,65.14
2019-04-22T00:34:53.694Z,65.06
2019-04-22T00:40:07.308Z,65.42
2019-04-22T00:45:19.418Z,65.95
2019-04-22T00:55:43.725Z,66.29
2019-04-22T01:00:44.451Z,65.82
2019-04-22T01:05:55.402Z,66.56
2019-04-22T01:11:11.267Z,66.75
2019-04-22T01:16:17.515Z,67.50
2019-04-22T01:21:28.903Z,67.12
2019-04-22T01:26:30.036Z,67.26
2019-04-22T01:31:23.976Z,67.34
2019-04-22T01:36:48.667Z,67.04
2019-04-22T01:47:21.401Z,68.06
2019-04-22T01:52:20.438Z,68.51
2019-04-22T01:57:31.737Z,69.41
2019-04-22T02:02:44.088Z,69.62
2019-04-22T02:07:49.046Z,69.73
2019-04-22T02:13:03.120Z,70.24
2019-04-22T02:18:18.099Z,69.81
2019-04-22T02:28:40.085Z,70.88
2019-04-22T02:39:05.732Z,70.88
2019-04-22T02:44:13.873Z,70.72
2019-04-22T02:59:44.937Z,70.80
2019-04-22T03:04:56.916Z,71.15
2019-04-22T03:09:57.787Z,70.76
2019-04-22T03:15:01.442Z,70.97
2019-04-22T03:20:14.226Z,71.55
2019-04-22T03:25:51.511Z,71.40
2019-04-22T03:35:55.629Z,71.85
2019-04-22T03:41:22.165Z,71.55
2019-04-22T03:46:03.828Z,71.67
2019-04-22T03:51:16.398Z,71.95
2019-04-22T03:56:59.129Z,72.65
2019-04-22T04:01:36.653Z,71.93
2019-04-22T04:06:52.525Z,72.43
2019-04-22T04:22:18.851Z,72.55
2019-04-22T04:32:39.373Z,72.96
2019-04-22T04:42:46.272Z,72.52
2019-04-22T04:48:01.016Z,72.71
2019-04-22T05:08:39.089Z,72.00
2019-04-22T05:24:00.035Z,72.57
2019-04-22T05:29:05.587Z,73.06
2019-04-22T05:34:08.473Z,72.61
2019-04-22T05:39:17.226Z,72.61
2019-04-22T05:44:32.563Z,72.63
2019-04-22T05:49:35.088Z,71.17
2019-04-22T05:54:47.119Z,71.46
2019-04-22T06:05:07.756Z,71.59
2019-04-22T06:10:21.416Z,72.71
2019-04-22T06:15:23.356Z,70.47
2019-04-22T06:20:38.389Z,69.60
2019-04-22T06:25:57.553Z,69.65
2019-04-22T06:30:57.455Z,67.75
2019-04-22T06:36:03.693Z,66.26
2019-04-22T06:41:14.027Z,66.56
2019-04-22T06:46:25.696Z,66.54
2019-04-22T06:51:35.652Z,64.17
2019-04-22T06:56:42.659Z,61.76
2019-04-22T07:01:59.380Z,60.20
2019-04-22T07:07:03.357Z,56.65
2019-04-22T07:12:12.086Z,49.67
2019-04-22T07:17:24.630Z,45.89
2019-04-22T07:22:38.949Z,44.33
2019-04-22T07:27:40.523Z,44.59
2019-04-22T07:33:04.569Z,43.08
2019-04-22T07:38:00.311Z,42.19
2019-04-22T07:43:13.753Z,41.43
2019-04-22T07:48:26.533Z,39.73
2019-04-22T07:53:26.186Z,41.10
2019-04-22T07:58:35.987Z,40.82
2019-04-22T08:03:51.608Z,37.66
2019-04-22T08:08:58.507Z,38.11
2019-04-22T08:13:58.745Z,38.28
2019-04-22T08:19:16.975Z,38.13
2019-04-22T08:24:22.775Z,38.42
2019-04-22T08:29:37.104Z,38.34
2019-04-22T08:34:40.818Z,37.20
2019-04-22T08:39:49.994Z,37.50
2019-04-22T08:50:08.791Z,35.04
2019-04-22T08:55:18.975Z,31.69
2019-04-22T09:00:32.239Z,34.68
2019-04-22T09:05:53.529Z,33.46
2019-04-22T09:10:44.692Z,33.71
2019-04-22T09:15:49.122Z,34.02
2019-04-22T09:26:16.633Z,33.38
2019-04-22T09:31:19.607Z,28.62
2019-04-22T09:41:41.169Z,19.39
2019-04-22T09:46:47.109Z,15.74
2019-04-22T09:51:58.221Z,15.91
2019-04-22T09:57:09.546Z,14.65
2019-04-22T10:07:30.455Z,13.96
2019-04-22T10:12:36.691Z,14.38
2019-04-22T10:17:47.298Z,13.85
2019-04-22T10:22:54.766Z,12.49
2019-04-22T10:28:09.205Z,15.25
2019-04-22T10:33:05.780Z,13.74
2019-04-22T10:37:56.556Z,14.21
2019-04-22T10:43:05.290Z,13.43
2019-04-22T10:48:14.562Z,11.81
2019-04-22T10:53:23.719Z,12.59
2019-04-22T10:58:32.752Z,12.71
2019-04-22T11:03:41.535Z,12.09
2019-04-22T11:08:54.416Z,12.38
2019-04-22T11:13:58.195Z,13.75
2019-04-22T11:19:05.755Z,13.40
2019-04-22T11:24:14.760Z,13.64
2019-04-22T11:29:23.766Z,12.88
2019-04-22T11:34:31.342Z,10.98
2019-04-22T11:39:38.934Z,11.04
2019-04-22T11:44:47.531Z,9.03
2019-04-22T11:49:55.179Z,10.18
2019-04-22T11:55:04.545Z,11.92
2019-04-22T12:00:14.711Z,11.45
2019-04-22T12:05:23.703Z,12.19
2019-04-22T12:10:40.245Z,9.83
2019-04-22T12:15:40.865Z,11.75
2019-04-22T12:20:48.369Z,12.64
2019-04-22T12:26:02.047Z,14.91
2019-04-22T12:31:05.805Z,13.62
2019-04-22T12:36:14.758Z,16.38
2019-04-22T12:41:23.604Z,11.01
2019-04-22T12:46:32.366Z,12.31
2019-04-22T12:51:40.980Z,12.79
2019-04-22T12:56:48.562Z,14.05
2019-04-22T13:01:56.952Z,15.31
2019-04-22T13:07:06.159Z,14.17
2019-04-22T13:12:14.834Z,15.77
2019-04-22T13:17:23.137Z,14.48
2019-04-22T13:22:30.730Z,14.37
2019-04-22T13:27:39.272Z,16.10
2019-04-22T13:32:47.177Z,13.66
2019-04-22T13:37:54.974Z,13.24
2019-04-22T13:43:02.789Z,12.57
2019-04-22T13:48:29.664Z,13.51
2019-04-22T13:58:40.977Z,16.38
2019-04-22T14:04:00.735Z,15.68
2019-04-22T14:09:11.555Z,15.66
2019-04-22T14:14:20.033Z,14.39
2019-04-22T14:19:27.903Z,14.17
2019-04-22T14:24:36.444Z,16.16
2019-04-22T14:29:43.981Z,13.56
2019-04-22T14:34:51.378Z,15.88
2019-04-22T14:40:00.114Z,15.39
2019-04-22T14:46:00.274Z,15.70
2019-04-22T14:50:40.267Z,17.27
2019-04-22T14:55:31.453Z,18.44
2019-04-22T15:00:37.952Z,22.13
2019-04-22T15:05:46.237Z,24.61
2019-04-22T15:10:54.087Z,25.20
2019-04-22T15:16:20.200Z,25.50
2019-04-22T15:21:28.915Z,25.66
2019-04-22T15:26:36.362Z,25.25
2019-04-22T15:31:45.014Z,24.47
2019-04-22T15:36:53.786Z,26.85
2019-04-22T15:42:11.765Z,26.58
2019-04-22T15:47:11.125Z,28.80
2019-04-22T15:52:18.989Z,29.42
2019-04-22T15:57:26.635Z,30.37
2019-04-22T16:02:34.142Z,30.77
2019-04-22T16:07:42.244Z,31.18
2019-04-22T16:12:57.613Z,30.22
2019-04-22T16:18:01.588Z,30.98
2019-04-22T16:23:42.388Z,30.65
2019-04-22T16:28:52.763Z,31.53
2019-04-22T16:33:59.178Z,31.89
2019-04-22T16:39:13.230Z,32.58
2019-04-22T16:44:22.891Z,32.97
2019-04-22T16:49:31.873Z,33.16
2019-04-22T16:54:40.045Z,33.49
2019-04-22T16:59:48.977Z,33.21
2019-04-22T17:05:05.487Z,33.41
2019-04-22T17:10:13.769Z,33.07
2019-04-22T17:15:22.556Z,33.56
2019-04-22T17:20:31.221Z,33.33
2019-04-22T17:25:38.815Z,33.59
2019-04-22T17:30:47.819Z,34.39
2019-04-22T17:35:55.105Z,34.75
2019-04-22T17:41:17.209Z,34.84
2019-04-22T17:46:33.689Z,35.55
2019-04-22T17:52:15.689Z,35.81
2019-04-22T17:57:19.308Z,36.04
2019-04-22T18:02:22.580Z,35.76
2019-04-22T18:07:35.494Z,36.15
2019-04-22T18:12:53.161Z,36.59
2019-04-22T18:17:55.596Z,38.41
2019-04-22T18:22:54.300Z,38.35
2019-04-22T18:33:21.173Z,39.86
2019-04-22T18:38:42.389Z,41.93
2019-04-22T18:43:42.293Z,41.31
2019-04-22T18:48:45.874Z,42.55
2019-04-22T18:54:10.351Z,44.38
2019-04-22T18:59:05.092Z,43.84
2019-04-22T19:04:11.633Z,46.27
2019-04-22T19:09:43.885Z,45.90
2019-04-22T19:14:55.211Z,46.37
2019-04-22T19:20:05.430Z,46.87
2019-04-22T19:25:04.127Z,48.66
2019-04-22T19:30:15.957Z,49.05
2019-04-22T19:35:21.339Z,49.28
2019-04-22T19:40:47.824Z,51.29
2019-04-22T19:45:45.999Z,51.44
2019-04-22T19:51:05.850Z,51.06
2019-04-22T19:56:01.509Z,51.94
2019-04-22T20:01:39.001Z,51.80
2019-04-22T20:06:47.598Z,51.59
2019-04-22T20:11:57.608Z,53.90
2019-04-22T20:17:00.468Z,53.31
2019-04-22T20:22:12.883Z,54.11
2019-04-22T20:27:34.380Z,54.93
2019-04-22T20:32:34.116Z,54.97
2019-04-22T20:37:45.761Z,54.83
2019-04-22T20:43:03.528Z,56.22
2019-04-22T20:47:53.841Z,56.20
2019-04-22T20:53:21.374Z,56.94
2019-04-22T20:58:21.137Z,56.61
2019-04-22T21:03:22.377Z,57.32
2019-04-22T21:08:36.993Z,58.07
2019-04-22T21:13:41.031Z,57.96
2019-04-22T21:18:47.370Z,58.65
2019-04-22T21:23:57.150Z,58.68
2019-04-22T21:29:13.329Z,59.18
2019-04-22T21:34:20.619Z,59.82
2019-04-22T21:39:33.784Z,59.91
2019-04-22T21:44:42.665Z,60.58
2019-04-22T21:50:09.854Z,61.09
2019-04-22T21:55:08.712Z,60.96
2019-04-22T22:00:17.621Z,60.78
2019-04-22T22:05:14.356Z,60.94
2019-04-22T22:10:29.692Z,62.01
2019-04-22T22:15:36.870Z,62.14
2019-04-22T22:20:59.843Z,62.83
2019-04-22T22:25:53.790Z,62.87
2019-04-22T22:31:13.376Z,63.72
2019-04-22T22:36:13.650Z,62.88
2019-04-22T22:41:01.532Z,63.37
2019-04-22T22:46:17.940Z,64.41
2019-04-22T22:51:52.125Z,64.28
2019-04-22T22:56:55.672Z,65.04
2019-04-22T23:01:54.558Z,65.09
2019-04-22T23:07:11.156Z,64.86
2019-04-22T23:12:25.147Z,65.31
2019-04-22T23:17:09.993Z,65.62
2019-04-22T23:22:25.275Z,65.49
2019-04-22T23:28:02.320Z,65.84
2019-04-22T23:33:09.862Z,66.21
2019-04-22T23:38:20.691Z,66.52
2019-04-22T23:43:38.959Z,66.63
2019-04-22T23:48:35.795Z,67.08
2019-04-22T23:59:06.893Z,67.68
